createdAt,value
2022-11-15T00:00:58.130Z,99039.00
2022-11-15T00:01:58.220Z,99043.00
2022-11-15T00:02:58.179Z,99037.00
2022-11-15T00:03:58.169Z,99038.00
2022-11-15T00:04:58.165Z,99039.00
2022-11-15T00:05:58.169Z,99034.00
2022-11-15T00:06:58.249Z,99038.00
2022-11-15T00:07:58.255Z,99037.00
2022-11-15T00:08:58.245Z,99038.00
2022-11-15T00:09:58.261Z,99036.00
2022-11-15T00:10:58.287Z,99040.00
2022-11-15T00:11:58.304Z,99033.00
2022-11-15T00:12:58.308Z,99035.00
2022-11-15T00:13:58.325Z,99037.00
2022-11-15T00:14:58.313Z,99037.00
2022-11-15T00:15:58.331Z,99035.00
2022-11-15T00:16:58.352Z,99035.00
2022-11-15T00:17:58.388Z,99037.00
2022-11-15T00:18:58.446Z,99037.00
2022-11-15T00:19:58.426Z,99034.00
2022-11-15T00:20:58.464Z,99036.00
2022-11-15T00:21:58.413Z,99037.00
2022-11-15T00:22:58.444Z,99035.00
2022-11-15T00:23:58.455Z,99036.00
2022-11-15T00:24:58.488Z,99034.00
2022-11-15T00:25:58.517Z,99040.00
2022-11-15T00:26:58.494Z,99036.00
2022-11-15T00:27:58.504Z,99035.00
2022-11-15T00:28:58.527Z,99041.00
2022-11-15T00:29:58.551Z,99042.00
2022-11-15T00:30:58.562Z,99039.00
2022-11-15T00:31:58.562Z,99039.00
2022-11-15T00:32:58.556Z,99040.00
2022-11-15T00:33:58.577Z,99040.00
2022-11-15T00:34:58.644Z,99039.00
2022-11-15T00:35:58.643Z,99043.00
2022-11-15T00:36:58.692Z,99042.00
2022-11-15T00:37:58.703Z,99040.00
2022-11-15T00:38:58.689Z,99041.00
2022-11-15T00:39:58.706Z,99043.00
2022-11-15T00:40:58.699Z,99044.00
2022-11-15T00:41:58.734Z,99045.00
2022-11-15T00:42:58.733Z,99036.00
2022-11-15T00:43:58.763Z,99044.00
2022-11-15T00:44:58.790Z,99042.00
2022-11-15T00:45:58.815Z,99039.00
2022-11-15T00:46:58.849Z,99041.00
2022-11-15T00:47:58.859Z,99042.00
2022-11-15T00:48:58.836Z,99040.00
2022-11-15T00:49:58.838Z,99037.00
2022-11-15T00:50:58.892Z,99036.00
2022-11-15T00:51:58.891Z,99036.00
2022-11-15T00:52:58.912Z,99031.00
2022-11-15T00:53:58.925Z,99041.00
2022-11-15T00:54:58.963Z,99041.00
2022-11-15T00:55:58.968Z,99037.00
2022-11-15T00:56:58.958Z,99034.00
2022-11-15T00:57:58.982Z,99037.00
2022-11-15T00:58:58.996Z,99039.00
2022-11-15T00:59:59.003Z,99038.00
2022-11-15T01:00:59.056Z,99040.00
2022-11-15T01:01:59.023Z,99036.00
2022-11-15T01:02:59.043Z,99038.00
2022-11-15T01:04:01.450Z,99037.00
2022-11-15T01:04:59.048Z,99038.00
2022-11-15T01:05:59.077Z,99036.00
2022-11-15T01:06:59.218Z,99033.00
2022-11-15T01:07:59.100Z,99030.00
2022-11-15T01:08:59.124Z,99031.00
2022-11-15T01:09:59.354Z,99030.00
2022-11-15T01:10:59.172Z,99028.00
2022-11-15T01:11:59.201Z,99025.00
2022-11-15T01:12:59.408Z,99029.00
2022-11-15T01:13:59.214Z,99028.00
2022-11-15T01:14:59.228Z,99028.00
2022-11-15T01:15:59.249Z,99030.00
2022-11-15T01:16:59.256Z,99026.00
2022-11-15T01:17:59.251Z,99027.00
2022-11-15T01:18:59.285Z,99025.00
2022-11-15T01:19:59.289Z,99021.00
2022-11-15T01:20:59.313Z,99021.00
2022-11-15T01:21:59.319Z,99019.00
2022-11-15T01:22:59.372Z,99016.00
2022-11-15T01:23:59.369Z,99017.00
2022-11-15T01:24:59.386Z,99015.00
2022-11-15T01:25:59.397Z,99014.00
2022-11-15T01:26:59.399Z,99015.00
2022-11-15T01:27:59.394Z,99009.00
2022-11-15T01:28:59.438Z,99007.00
2022-11-15T01:29:59.431Z,99009.00
2022-11-15T01:30:59.451Z,99012.00
2022-11-15T01:31:59.454Z,99007.00
2022-11-15T01:32:59.443Z,99002.00
2022-11-15T01:33:59.452Z,98999.00
2022-11-15T01:34:59.453Z,98998.00
2022-11-15T01:35:59.452Z,98993.00
2022-11-15T01:36:59.479Z,98991.00
2022-11-15T01:37:59.470Z,98989.00
2022-11-15T01:38:59.482Z,98988.00
2022-11-15T01:39:59.469Z,98986.00
2022-11-15T01:40:59.500Z,98989.00
2022-11-15T01:41:59.523Z,98987.00
2022-11-15T01:42:59.544Z,98982.00
2022-11-15T01:43:59.556Z,98986.00
2022-11-15T01:44:59.585Z,98984.00
2022-11-15T01:45:59.582Z,98986.00
2022-11-15T01:46:59.576Z,98986.00
2022-11-15T01:47:59.612Z,98984.00
2022-11-15T01:48:59.596Z,98982.00
2022-11-15T01:49:59.610Z,98981.00
2022-11-15T01:50:59.624Z,98986.00
2022-11-15T01:51:59.628Z,98978.00
2022-11-15T01:52:59.628Z,98976.00
2022-11-15T01:53:59.641Z,98975.00
2022-11-15T01:54:59.662Z,98978.00
2022-11-15T01:55:59.654Z,98980.00
2022-11-15T01:56:59.668Z,98982.00
2022-11-15T01:57:59.686Z,98984.00
2022-11-15T01:58:59.700Z,98977.00
2022-11-15T01:59:59.724Z,98978.00
2022-11-15T02:00:59.820Z,98973.00
2022-11-15T02:01:59.736Z,98977.00
2022-11-15T02:02:59.740Z,98975.00
2022-11-15T02:03:59.754Z,98978.00
2022-11-15T02:04:59.751Z,98978.00
2022-11-15T02:05:59.769Z,98977.00
2022-11-15T02:06:59.833Z,98977.00
2022-11-15T02:07:59.812Z,98976.00
2022-11-15T02:08:59.859Z,98976.00
2022-11-15T02:09:59.809Z,98976.00
2022-11-15T02:10:59.856Z,98973.00
2022-11-15T02:11:59.852Z,98978.00
2022-11-15T02:12:59.879Z,98981.00
2022-11-15T02:13:59.880Z,98981.00
2022-11-15T02:14:59.893Z,98979.00
2022-11-15T02:16:03.037Z,98976.00
2022-11-15T02:16:59.932Z,98976.00
2022-11-15T02:17:59.959Z,98973.00
2022-11-15T02:18:59.986Z,98972.00
2022-11-15T02:20:00.000Z,98976.00
2022-11-15T02:21:00.017Z,98978.00
2022-11-15T02:22:00.040Z,98979.00
2022-11-15T02:23:00.045Z,98976.00
2022-11-15T02:24:00.050Z,98974.00
2022-11-15T02:25:00.075Z,98966.00
2022-11-15T02:26:00.103Z,98963.00
2022-11-15T02:27:00.149Z,98960.00
2022-11-15T02:28:00.159Z,98958.00
2022-11-15T02:29:00.153Z,98958.00
2022-11-15T02:30:00.174Z,98962.00
2022-11-15T02:31:00.214Z,98957.00
2022-11-15T02:32:00.224Z,98961.00
2022-11-15T02:33:00.243Z,98953.00
2022-11-15T02:34:00.273Z,98950.00
2022-11-15T02:35:00.290Z,98947.00
2022-11-15T02:36:00.323Z,98943.00
2022-11-15T02:37:00.338Z,98948.00
2022-11-15T02:38:00.359Z,98948.00
2022-11-15T02:39:00.592Z,98949.00
2022-11-15T02:40:00.413Z,98947.00
2022-11-15T02:41:00.423Z,98941.00
2022-11-15T02:42:00.422Z,98941.00
2022-11-15T02:43:05.604Z,98940.00
2022-11-15T02:44:00.434Z,98948.00
2022-11-15T02:45:00.462Z,98945.00
2022-11-15T02:46:00.487Z,98945.00
2022-11-15T02:47:00.451Z,98949.00
2022-11-15T02:48:00.471Z,98947.00
2022-11-15T02:49:00.484Z,98948.00
2022-11-15T02:50:00.479Z,98942.00
2022-11-15T02:51:00.483Z,98941.00
2022-11-15T02:52:00.511Z,98938.00
2022-11-15T02:53:00.512Z,98938.00
2022-11-15T02:54:00.517Z,98935.00
2022-11-15T02:55:00.529Z,98935.00
2022-11-15T02:56:00.526Z,98937.00
2022-11-15T02:57:00.534Z,98941.00
2022-11-15T02:58:00.557Z,98940.00
2022-11-15T02:59:00.536Z,98937.00
2022-11-15T03:00:00.530Z,98937.00
2022-11-15T03:01:00.652Z,98939.00
2022-11-15T03:02:00.555Z,98941.00
2022-11-15T03:03:00.556Z,98943.00
2022-11-15T03:04:00.575Z,98943.00
2022-11-15T03:05:00.595Z,98942.00
2022-11-15T03:06:00.618Z,98944.00
2022-11-15T03:07:00.669Z,98946.00
2022-11-15T03:08:02.446Z,98948.00
2022-11-15T03:09:00.638Z,98945.00
2022-11-15T03:10:00.661Z,98940.00
2022-11-15T03:11:00.661Z,98937.00
2022-11-15T03:12:00.664Z,98937.00
2022-11-15T03:13:00.664Z,98932.00
2022-11-15T03:14:00.697Z,98931.00
2022-11-15T03:15:00.921Z,98934.00
2022-11-15T03:16:00.732Z,98931.00
2022-11-15T03:17:00.769Z,98931.00
2022-11-15T03:18:00.779Z,98930.00
2022-11-15T03:19:00.795Z,98927.00
2022-11-15T03:20:00.789Z,98934.00
2022-11-15T03:21:00.810Z,98931.00
2022-11-15T03:22:00.850Z,98931.00
2022-11-15T03:23:00.842Z,98934.00
2022-11-15T03:24:00.873Z,98934.00
2022-11-15T03:25:00.887Z,98935.00
2022-11-15T03:26:00.901Z,98930.00
2022-11-15T03:27:00.924Z,98934.00
2022-11-15T03:28:00.961Z,98926.00
2022-11-15T03:29:00.931Z,98933.00
2022-11-15T03:30:00.946Z,98934.00
2022-11-15T03:31:00.995Z,98935.00
2022-11-15T03:32:00.991Z,98934.00
2022-11-15T03:33:01.018Z,98931.00
2022-11-15T03:34:01.007Z,98928.00
2022-11-15T03:35:01.022Z,98929.00
2022-11-15T03:36:01.043Z,98927.00
2022-11-15T03:37:01.064Z,98929.00
2022-11-15T03:38:01.249Z,98923.00
2022-11-15T03:39:01.067Z,98925.00
2022-11-15T03:40:01.058Z,98920.00
2022-11-15T03:41:01.049Z,98922.00
2022-11-15T03:42:01.073Z,98920.00
2022-11-15T03:43:01.114Z,98915.00
2022-11-15T03:44:01.112Z,98917.00
2022-11-15T03:45:01.147Z,98915.00
2022-11-15T03:46:01.167Z,98910.00
2022-11-15T03:47:01.193Z,98903.00
2022-11-15T03:48:01.206Z,98896.00
2022-11-15T03:49:01.212Z,98903.00
2022-11-15T03:50:01.231Z,98902.00
2022-11-15T03:51:01.230Z,98903.00
2022-11-15T03:52:01.248Z,98899.00
2022-11-15T03:53:01.266Z,98900.00
2022-11-15T03:54:01.399Z,98900.00
2022-11-15T03:55:01.297Z,98903.00
2022-11-15T03:56:01.318Z,98903.00
2022-11-15T03:57:01.331Z,98899.00
2022-11-15T03:58:01.352Z,98902.00
2022-11-15T03:59:01.376Z,98903.00
2022-11-15T04:00:01.394Z,98896.00
2022-11-15T04:01:01.433Z,98895.00
2022-11-15T04:02:01.418Z,98895.00
2022-11-15T04:03:01.467Z,98895.00
2022-11-15T04:04:01.468Z,98892.00
2022-11-15T04:05:01.475Z,98888.00
2022-11-15T04:06:01.493Z,98889.00
2022-11-15T04:07:01.503Z,98888.00
2022-11-15T04:08:01.471Z,98889.00
2022-11-15T04:09:01.515Z,98887.00
2022-11-15T04:10:01.533Z,98891.00
2022-11-15T04:11:02.467Z,98891.00
2022-11-15T04:12:01.518Z,98890.00
2022-11-15T04:13:01.560Z,98892.00
2022-11-15T04:14:01.556Z,98891.00
2022-11-15T04:15:01.531Z,98892.00
2022-11-15T04:16:01.562Z,98889.00
2022-11-15T04:17:01.599Z,98890.00
2022-11-15T04:18:01.628Z,98890.00
2022-11-15T04:19:01.685Z,98883.00
2022-11-15T04:20:01.853Z,98879.00
2022-11-15T04:21:01.659Z,98880.00
2022-11-15T04:22:01.661Z,98879.00
2022-11-15T04:23:01.682Z,98881.00
2022-11-15T04:24:01.699Z,98878.00
2022-11-15T04:25:01.719Z,98877.00
2022-11-15T04:26:01.720Z,98880.00
2022-11-15T04:27:01.718Z,98878.00
2022-11-15T04:28:01.707Z,98881.00
2022-11-15T04:29:01.731Z,98881.00
2022-11-15T04:30:01.723Z,98881.00
2022-11-15T04:31:01.716Z,98882.00
2022-11-15T04:32:01.717Z,98883.00
2022-11-15T04:33:01.730Z,98885.00
2022-11-15T04:34:01.786Z,98886.00
2022-11-15T04:35:01.787Z,98887.00
2022-11-15T04:36:01.785Z,98890.00
2022-11-15T04:37:01.805Z,98885.00
2022-11-15T04:38:01.826Z,98891.00
2022-11-15T04:39:01.829Z,98890.00
2022-11-15T04:40:01.840Z,98884.00
2022-11-15T04:41:01.844Z,98886.00
2022-11-15T04:42:01.871Z,98883.00
2022-11-15T04:43:03.883Z,98881.00
2022-11-15T04:44:01.841Z,98882.00
2022-11-15T04:45:01.863Z,98879.00
2022-11-15T04:46:01.892Z,98877.00
2022-11-15T04:47:01.892Z,98881.00
2022-11-15T04:48:01.906Z,98885.00
2022-11-15T04:49:01.928Z,98886.00
2022-11-15T04:50:01.928Z,98885.00
2022-11-15T04:51:01.952Z,98881.00
2022-11-15T04:52:01.959Z,98874.00
2022-11-15T04:53:01.941Z,98873.00
2022-11-15T04:54:01.965Z,98876.00
2022-11-15T04:55:07.724Z,98873.00
2022-11-15T04:56:01.974Z,98870.00
2022-11-15T04:57:01.996Z,98874.00
2022-11-15T04:58:02.003Z,98868.00
2022-11-15T04:59:02.014Z,98866.00
2022-11-15T05:00:02.035Z,98864.00
2022-11-15T05:01:02.087Z,98869.00
2022-11-15T05:02:02.045Z,98867.00
2022-11-15T05:03:02.056Z,98872.00
2022-11-15T05:04:02.075Z,98873.00
2022-11-15T05:05:02.095Z,98878.00
2022-11-15T05:06:02.101Z,98877.00
2022-11-15T05:07:02.341Z,98868.00
2022-11-15T05:08:02.152Z,98868.00
2022-11-15T05:09:02.175Z,98873.00
2022-11-15T05:10:02.201Z,98874.00
2022-11-15T05:11:02.266Z,98870.00
2022-11-15T05:12:02.226Z,98869.00
2022-11-15T05:13:02.251Z,98871.00
2022-11-15T05:14:02.272Z,98866.00
2022-11-15T05:15:02.309Z,98861.00
2022-11-15T05:16:02.309Z,98863.00
2022-11-15T05:17:02.314Z,98858.00
2022-11-15T05:18:02.337Z,98858.00
2022-11-15T05:19:02.358Z,98863.00
2022-11-15T05:20:02.388Z,98863.00
2022-11-15T05:21:02.414Z,98864.00
2022-11-15T05:22:02.438Z,98866.00
2022-11-15T05:23:02.483Z,98861.00
2022-11-15T05:24:02.481Z,98856.00
2022-11-15T05:25:02.505Z,98854.00
2022-11-15T05:26:07.854Z,98851.00
2022-11-15T05:27:02.510Z,98848.00
2022-11-15T05:28:02.530Z,98851.00
2022-11-15T05:29:02.551Z,98853.00
2022-11-15T05:30:02.588Z,98854.00
2022-11-15T05:31:02.587Z,98852.00
2022-11-15T05:32:02.592Z,98852.00
2022-11-15T05:33:02.615Z,98847.00
2022-11-15T05:34:02.648Z,98843.00
2022-11-15T05:35:02.660Z,98840.00
2022-11-15T05:36:02.662Z,98840.00
2022-11-15T05:37:02.685Z,98835.00
2022-11-15T05:38:02.697Z,98840.00
2022-11-15T05:39:02.735Z,98833.00
2022-11-15T05:40:02.740Z,98846.00
2022-11-15T05:41:02.772Z,98852.00
2022-11-15T05:42:02.784Z,98855.00
2022-11-15T05:43:02.808Z,98856.00
2022-11-15T05:44:02.798Z,98856.00
2022-11-15T05:45:02.797Z,98853.00
2022-11-15T05:46:02.819Z,98848.00
2022-11-15T05:47:02.839Z,98848.00
2022-11-15T05:48:02.864Z,98849.00
2022-11-15T05:49:02.879Z,98851.00
2022-11-15T05:50:02.909Z,98849.00
2022-11-15T05:51:02.922Z,98844.00
2022-11-15T05:52:02.955Z,98837.00
2022-11-15T05:53:05.386Z,98838.00
2022-11-15T05:54:02.985Z,98837.00
2022-11-15T05:55:03.010Z,98836.00
2022-11-15T05:56:03.027Z,98834.00
2022-11-15T05:57:03.067Z,98836.00
2022-11-15T05:58:03.033Z,98831.00
2022-11-15T05:59:03.054Z,98828.00
2022-11-15T06:00:03.075Z,98830.00
2022-11-15T06:02:29.094Z,98836.00
2022-11-15T06:03:29.354Z,98835.00
2022-11-15T06:04:29.036Z,98833.00
2022-11-15T06:05:30.144Z,98835.00
2022-11-15T06:06:29.037Z,98832.00
2022-11-15T06:07:29.093Z,98830.00
2022-11-15T06:08:29.062Z,98827.00
2022-11-15T06:09:29.075Z,98828.00
2022-11-15T06:10:29.124Z,98833.00
2022-11-15T06:11:29.145Z,98837.00
2022-11-15T06:12:29.115Z,98837.00
2022-11-15T06:13:29.550Z,98840.00
2022-11-15T06:14:29.153Z,98842.00
2022-11-15T06:15:29.187Z,98844.00
2022-11-15T06:16:29.196Z,98843.00
2022-11-15T06:17:29.234Z,98845.00
2022-11-15T06:18:29.225Z,98849.00
2022-11-15T06:19:29.248Z,98848.00
2022-11-15T06:20:29.247Z,98842.00
2022-11-15T06:21:29.249Z,98842.00
2022-11-15T06:22:29.413Z,98832.00
2022-11-15T06:23:29.600Z,98836.00
2022-11-15T06:24:29.346Z,98836.00
2022-11-15T06:25:29.300Z,98832.00
2022-11-15T06:26:29.328Z,98836.00
2022-11-15T06:27:29.483Z,98832.00
2022-11-15T06:28:29.385Z,98831.00
2022-11-15T06:29:29.335Z,98833.00
2022-11-15T06:30:29.394Z,98835.00
2022-11-15T06:31:29.364Z,98831.00
2022-11-15T06:32:29.400Z,98825.00
2022-11-15T06:33:30.002Z,98824.00
2022-11-15T06:34:29.465Z,98824.00
2022-11-15T06:35:29.436Z,98822.00
2022-11-15T06:36:29.451Z,98820.00
2022-11-15T06:37:29.728Z,98834.00
2022-11-15T06:38:29.479Z,98832.00
2022-11-15T06:39:29.515Z,98837.00
2022-11-15T06:40:29.541Z,98841.00
2022-11-15T06:41:29.501Z,98833.00
2022-11-15T06:42:29.555Z,98836.00
2022-11-15T06:43:29.839Z,98836.00
2022-11-15T06:44:29.636Z,98841.00
2022-11-15T06:45:29.605Z,98841.00
2022-11-15T06:46:29.605Z,98841.00
2022-11-15T06:47:29.639Z,98841.00
2022-11-15T06:48:29.742Z,98852.00
2022-11-15T06:49:29.647Z,98851.00
2022-11-15T06:50:29.665Z,98858.00
2022-11-15T06:51:29.701Z,98862.00
2022-11-15T06:52:29.760Z,98861.00
2022-11-15T06:53:30.080Z,98857.00
2022-11-15T06:56:46.754Z,98851.00
2022-11-15T06:57:38.744Z,98854.00
2022-11-15T06:58:38.733Z,98860.00
2022-11-15T06:59:40.696Z,98858.00
2022-11-15T07:00:38.781Z,98859.00
2022-11-15T07:01:38.890Z,98853.00
2022-11-15T07:02:38.773Z,98852.00
2022-11-15T07:03:38.823Z,98850.00
2022-11-15T07:04:38.790Z,98852.00
2022-11-15T07:05:38.944Z,98849.00
2022-11-15T07:06:38.823Z,98851.00
2022-11-15T07:07:38.930Z,98849.00
2022-11-15T07:08:38.819Z,98851.00
2022-11-15T07:09:38.850Z,98852.00
2022-11-15T07:10:38.847Z,98848.00
2022-11-15T07:11:38.866Z,98847.00
2022-11-15T07:12:38.896Z,98840.00
2022-11-15T07:13:39.018Z,98843.00
2022-11-15T07:14:38.931Z,98840.00
2022-11-15T07:15:38.934Z,98842.00
2022-11-15T07:16:38.971Z,98839.00
2022-11-15T07:17:38.991Z,98839.00
2022-11-15T07:18:39.047Z,98840.00
2022-11-15T07:19:39.010Z,98839.00
2022-11-15T07:20:39.046Z,98839.00
2022-11-15T07:21:39.056Z,98843.00
2022-11-15T07:22:39.081Z,98841.00
2022-11-15T07:23:39.080Z,98846.00
2022-11-15T07:24:39.074Z,98853.00
2022-11-15T07:25:39.081Z,98847.00
2022-11-15T07:26:39.099Z,98846.00
2022-11-15T07:27:39.095Z,98851.00
2022-11-15T07:28:39.116Z,98847.00
2022-11-15T07:29:39.368Z,98850.00
2022-11-15T07:30:44.078Z,98855.00
2022-11-15T07:31:39.166Z,98858.00
2022-11-15T07:32:39.183Z,98855.00
2022-11-15T07:33:39.200Z,98855.00
2022-11-15T07:34:39.232Z,98857.00
2022-11-15T07:35:39.273Z,98854.00
2022-11-15T07:36:39.259Z,98856.00
2022-11-15T07:37:39.243Z,98856.00
2022-11-15T07:38:42.753Z,98853.00
2022-11-15T07:39:39.243Z,98859.00
2022-11-15T07:40:39.230Z,98851.00
2022-11-15T07:41:39.260Z,98862.00
2022-11-15T07:42:39.263Z,98862.00
2022-11-15T07:43:39.279Z,98854.00
2022-11-15T07:44:39.296Z,98854.00
2022-11-15T07:45:39.349Z,98855.00
2022-11-15T07:46:39.347Z,98854.00
2022-11-15T07:47:39.380Z,98856.00
2022-11-15T07:48:44.443Z,98861.00
2022-11-15T07:49:39.384Z,98864.00
2022-11-15T07:50:39.407Z,98865.00
2022-11-15T07:51:39.484Z,98869.00
2022-11-15T07:52:39.459Z,98867.00
2022-11-15T07:53:39.421Z,98868.00
2022-11-15T07:54:39.493Z,98867.00
2022-11-15T07:55:39.453Z,98869.00
2022-11-15T07:56:39.495Z,98872.00
2022-11-15T07:57:39.459Z,98874.00
2022-11-15T07:58:39.537Z,98871.00
2022-11-15T07:59:39.502Z,98866.00
2022-11-15T08:00:39.503Z,98862.00
2022-11-15T08:01:39.736Z,98863.00
2022-11-15T08:02:39.679Z,98860.00
2022-11-15T08:03:39.575Z,98858.00
2022-11-15T08:04:39.571Z,98856.00
2022-11-15T08:05:39.580Z,98857.00
2022-11-15T08:06:39.592Z,98860.00
2022-11-15T08:07:39.618Z,98860.00
2022-11-15T08:08:39.643Z,98858.00
2022-11-15T08:09:39.653Z,98854.00
2022-11-15T08:10:40.907Z,98855.00
2022-11-15T08:11:39.636Z,98855.00
2022-11-15T08:12:39.715Z,98854.00
2022-11-15T08:13:39.661Z,98852.00
2022-11-15T08:14:39.674Z,98849.00
2022-11-15T08:15:39.735Z,98852.00
2022-11-15T08:16:39.725Z,98851.00
2022-11-15T08:17:39.779Z,98851.00
2022-11-15T08:18:39.702Z,98850.00
2022-11-15T08:19:39.765Z,98849.00
2022-11-15T08:20:39.705Z,98847.00
2022-11-15T08:21:39.800Z,98839.00
2022-11-15T08:22:39.746Z,98841.00
2022-11-15T08:23:39.761Z,98838.00
2022-11-15T08:24:39.798Z,98838.00
2022-11-15T08:25:39.968Z,98839.00
2022-11-15T08:26:39.926Z,98838.00
2022-11-15T08:27:40.895Z,98833.00
2022-11-15T08:28:39.835Z,98832.00
2022-11-15T08:29:39.932Z,98834.00
2022-11-15T08:30:39.917Z,98828.00
2022-11-15T08:31:39.949Z,98833.00
2022-11-15T08:32:39.913Z,98827.00
2022-11-15T08:33:40.071Z,98830.00
2022-11-15T08:34:39.960Z,98833.00
2022-11-15T08:35:39.904Z,98830.00
2022-11-15T08:36:45.736Z,98835.00
2022-11-15T08:37:39.989Z,98832.00
2022-11-15T08:38:40.065Z,98833.00
2022-11-15T08:39:40.036Z,98829.00
2022-11-15T08:40:40.052Z,98828.00
2022-11-15T08:41:40.018Z,98820.00
2022-11-15T08:42:40.088Z,98818.00
2022-11-15T08:43:40.411Z,98820.00
2022-11-15T08:44:40.080Z,98817.00
2022-11-15T08:45:40.117Z,98818.00
2022-11-15T08:46:40.106Z,98815.00
2022-11-15T08:47:40.115Z,98816.00
2022-11-15T08:48:40.131Z,98812.00
2022-11-15T08:49:40.466Z,98810.00
2022-11-15T08:50:40.225Z,98807.00
2022-11-15T08:51:40.228Z,98805.00
2022-11-15T08:52:40.192Z,98800.00
2022-11-15T08:53:40.244Z,98801.00
2022-11-15T08:54:40.258Z,98796.00
2022-11-15T08:55:40.285Z,98798.00
2022-11-15T08:56:40.257Z,98801.00
2022-11-15T08:57:40.268Z,98802.00
2022-11-15T08:58:40.303Z,98798.00
2022-11-15T08:59:40.313Z,98801.00
2022-11-15T09:00:40.348Z,98807.00
2022-11-15T09:01:40.470Z,98810.00
2022-11-15T09:02:40.345Z,98802.00
2022-11-15T09:03:40.419Z,98801.00
2022-11-15T09:04:40.436Z,98801.00
2022-11-15T09:05:40.431Z,98800.00
2022-11-15T09:06:43.194Z,98793.00
2022-11-15T09:07:40.441Z,98796.00
2022-11-15T09:08:47.394Z,98796.00
2022-11-15T09:09:40.445Z,98797.00
2022-11-15T09:10:40.451Z,98794.00
2022-11-15T09:11:40.473Z,98790.00
2022-11-15T09:12:40.477Z,98788.00
2022-11-15T09:13:40.510Z,98790.00
2022-11-15T09:14:40.514Z,98792.00
2022-11-15T09:15:40.530Z,98793.00
2022-11-15T09:16:40.567Z,98789.00
2022-11-15T09:17:40.579Z,98788.00
2022-11-15T09:18:40.610Z,98789.00
2022-11-15T09:19:40.570Z,98786.00
2022-11-15T09:20:40.592Z,98783.00
2022-11-15T09:21:40.666Z,98781.00
2022-11-15T09:22:40.735Z,98782.00
2022-11-15T09:23:40.652Z,98779.00
2022-11-15T09:24:40.686Z,98780.00
2022-11-15T09:25:40.660Z,98783.00
2022-11-15T09:26:40.655Z,98781.00
2022-11-15T09:27:40.699Z,98782.00
2022-11-15T09:28:40.698Z,98787.00
2022-11-15T09:29:40.703Z,98788.00
2022-11-15T09:30:40.733Z,98787.00
2022-11-15T09:31:40.726Z,98787.00
2022-11-15T09:32:40.718Z,98786.00
2022-11-15T09:33:40.745Z,98784.00
2022-11-15T09:34:41.026Z,98788.00
2022-11-15T09:35:40.803Z,98784.00
2022-11-15T09:36:40.725Z,98782.00
2022-11-15T09:37:40.794Z,98782.00
2022-11-15T09:38:40.778Z,98781.00
2022-11-15T09:39:40.807Z,98778.00
2022-11-15T09:40:40.885Z,98780.00
2022-11-15T09:41:40.795Z,98777.00
2022-11-15T09:42:40.802Z,98782.00
2022-11-15T09:43:40.790Z,98779.00
2022-11-15T09:44:40.986Z,98778.00
2022-11-15T09:45:40.903Z,98773.00
2022-11-15T09:46:40.961Z,98777.00
2022-11-15T09:47:40.940Z,98777.00
2022-11-15T09:48:41.159Z,98776.00
2022-11-15T09:49:41.081Z,98778.00
2022-11-15T09:50:40.902Z,98777.00
2022-11-15T09:51:40.918Z,98784.00
2022-11-15T09:52:41.111Z,98778.00
2022-11-15T09:54:24.119Z,98778.00
2022-11-15T09:54:56.714Z,98774.00
2022-11-15T09:55:40.970Z,98775.00
2022-11-15T09:56:40.991Z,98771.00
2022-11-15T09:57:40.989Z,98773.00
2022-11-15T09:58:41.043Z,98767.00
2022-11-15T09:59:40.972Z,98767.00
2022-11-15T10:00:48.607Z,98766.00
2022-11-15T10:01:41.111Z,98763.00
2022-11-15T10:02:41.079Z,98760.00
2022-11-15T10:03:41.060Z,98762.00
2022-11-15T10:04:41.085Z,98760.00
2022-11-15T10:05:41.213Z,98756.00
2022-11-15T10:06:41.558Z,98758.00
2022-11-15T10:07:41.091Z,98755.00
2022-11-15T10:08:41.096Z,98754.00
2022-11-15T10:09:41.163Z,98748.00
2022-11-15T10:10:41.121Z,98750.00
2022-11-15T10:11:41.218Z,98748.00
2022-11-15T10:12:41.148Z,98749.00
2022-11-15T10:13:41.143Z,98746.00
2022-11-15T10:14:41.196Z,98746.00
2022-11-15T10:15:41.187Z,98741.00
2022-11-15T10:16:41.227Z,98742.00
2022-11-15T10:17:41.260Z,98741.00
2022-11-15T10:18:41.278Z,98735.00
2022-11-15T10:19:41.234Z,98738.00
2022-11-15T10:20:41.455Z,98738.00
2022-11-15T10:21:41.250Z,98735.00
2022-11-15T10:22:41.278Z,98735.00
2022-11-15T10:23:41.904Z,98734.00
2022-11-15T10:24:41.324Z,98734.00
2022-11-15T10:25:41.484Z,98731.00
2022-11-15T10:26:41.381Z,98727.00
2022-11-15T10:27:41.346Z,98725.00
2022-11-15T10:28:41.342Z,98726.00
2022-11-15T10:29:41.369Z,98721.00
2022-11-15T10:30:41.351Z,98724.00
2022-11-15T10:31:41.365Z,98721.00
2022-11-15T10:32:41.389Z,98721.00
2022-11-15T10:33:41.427Z,98723.00
2022-11-15T10:34:41.429Z,98725.00
2022-11-15T10:35:41.507Z,98719.00
2022-11-15T10:36:43.901Z,98719.00
2022-11-15T10:37:41.463Z,98715.00
2022-11-15T10:38:41.531Z,98716.00
2022-11-15T10:39:41.487Z,98714.00
2022-11-15T10:40:41.531Z,98714.00
2022-11-15T10:41:41.565Z,98709.00
2022-11-15T10:42:41.523Z,98709.00
2022-11-15T10:43:41.564Z,98702.00
2022-11-15T10:44:41.733Z,98706.00
2022-11-15T10:45:41.605Z,98700.00
2022-11-15T10:46:48.899Z,98700.00
2022-11-15T10:47:41.575Z,98699.00
2022-11-15T10:48:41.605Z,98699.00
2022-11-15T10:49:41.623Z,98694.00
2022-11-15T10:50:41.588Z,98690.00
2022-11-15T10:51:41.602Z,98699.00
2022-11-15T10:52:41.694Z,98691.00
2022-11-15T10:53:41.610Z,98689.00
2022-11-15T10:54:41.591Z,98684.00
2022-11-15T10:55:41.616Z,98690.00
2022-11-15T10:56:41.631Z,98682.00
2022-11-15T10:57:41.705Z,98685.00
2022-11-15T10:58:41.681Z,98684.00
2022-11-15T10:59:41.658Z,98681.00
2022-11-15T11:00:41.675Z,98684.00
2022-11-15T11:01:41.744Z,98678.00
2022-11-15T11:02:41.786Z,98673.00
2022-11-15T11:03:41.765Z,98683.00
2022-11-15T11:04:41.738Z,98682.00
2022-11-15T11:05:43.074Z,98680.00
2022-11-15T11:06:41.759Z,98682.00
2022-11-15T11:07:41.774Z,98675.00
2022-11-15T11:08:41.817Z,98678.00
2022-11-15T11:09:41.804Z,98670.00
2022-11-15T11:10:51.476Z,98673.00
2022-11-15T11:11:41.825Z,98671.00
2022-11-15T11:12:41.880Z,98664.00
2022-11-15T11:13:42.095Z,98666.00
2022-11-15T11:14:42.195Z,98664.00
2022-11-15T11:15:41.865Z,98667.00
2022-11-15T11:16:41.910Z,98663.00
2022-11-15T11:17:41.870Z,98662.00
2022-11-15T11:18:41.904Z,98664.00
2022-11-15T11:19:41.931Z,98661.00
2022-11-15T11:20:41.943Z,98666.00
2022-11-15T11:21:41.927Z,98667.00
2022-11-15T11:22:41.998Z,98664.00
2022-11-15T11:23:41.964Z,98660.00
2022-11-15T11:24:41.999Z,98662.00
2022-11-15T11:25:42.019Z,98661.00
2022-11-15T11:26:42.021Z,98663.00
2022-11-15T11:27:42.241Z,98663.00
2022-11-15T11:28:42.105Z,98663.00
2022-11-15T11:29:42.106Z,98666.00
2022-11-15T11:30:42.211Z,98662.00
2022-11-15T11:31:43.182Z,98661.00
2022-11-15T11:32:42.083Z,98665.00
2022-11-15T11:33:42.167Z,98664.00
2022-11-15T11:34:42.080Z,98664.00
2022-11-15T11:35:42.235Z,98661.00
2022-11-15T11:36:42.110Z,98664.00
2022-11-15T11:37:42.091Z,98662.00
2022-11-15T11:38:42.129Z,98660.00
2022-11-15T11:39:42.091Z,98661.00
2022-11-15T11:40:42.126Z,98660.00
2022-11-15T11:41:42.155Z,98661.00
2022-11-15T11:42:42.215Z,98660.00
2022-11-15T11:43:42.163Z,98654.00
2022-11-15T11:44:42.182Z,98652.00
2022-11-15T11:45:47.164Z,98649.00
2022-11-15T11:46:42.229Z,98654.00
2022-11-15T11:47:42.352Z,98655.00
2022-11-15T11:48:42.241Z,98656.00